Погода Уолфиш-Бейна неделю

Окаванго, Намибия

22 - 28 февраля
  • 22февраля
    Сегодня
    +14°
    +21°
    Практически безоблачно
    ВремяПогодаТемператураВлажностьДавлениеВетер, м/сВероятность осадков
    02:00Ясно и безоблачно+17°C94 %754 мм1.5 м/с5 %
    05:00Практически безоблачно+17°C95 %754 мм0.3 м/с5 %
    08:00Практически безоблачно+15°C94 %754 мм0.6 м/с5 %
    11:00Ясно и безоблачно+19°C69 %755 мм3.1 м/с5 %
    14:00Практически безоблачно+21°C57 %754 мм7.8 м/с5 %
    17:00Практически безоблачно+21°C62 %753 мм10.2 м/с5 %
    20:00Практически безоблачно+17°C75 %754 мм7.7 м/с5 %
    23:00Небольшая облачность+16°C79 %755 мм5.2 м/с5 %
  • 23февраля
    Пятница
    +15°
    +20°
    Практически безоблачно
    ВремяПогодаТемператураВлажностьДавлениеВетер, м/сВероятность осадков
    02:00Облачно с прояснениями+16°C85 %754 мм5.3 м/с5 %
    05:00Облачно с прояснениями+15°C89 %754 мм3.5 м/с5 %
    08:00Облачно с прояснениями+16°C85 %755 мм2.3 м/с5 %
    11:00Ясно и безоблачно+19°C67 %755 мм2.7 м/с5 %
    14:00Практически безоблачно+19°C59 %754 мм7.5 м/с5 %
    17:00Ясно и безоблачно+20°C66 %753 мм10.1 м/с5 %
    20:00Ясно и безоблачно+17°C80 %755 мм7.3 м/с5 %
    23:00Ясно и безоблачно+17°C84 %757 мм4.4 м/с5 %
  • 24февраля
    Суббота
    +13°
    +21°
    Ясно и безоблачно
    ВремяПогодаТемператураВлажностьДавлениеВетер, м/сВероятность осадков
    02:00Ясно и безоблачно+16°C91 %757 мм3.3 м/с5 %
    05:00Ясно и безоблачно+17°C95 %757 мм4.2 м/с4 %
    08:00Практически безоблачно+16°C89 %758 мм2.3 м/с5 %
    11:00Ясно и безоблачно+20°C70 %758 мм2.9 м/с5 %
    14:00Ясно и безоблачно+20°C62 %757 мм8.8 м/с4 %
    17:00Ясно и безоблачно+21°C65 %756 мм10.2 м/с5 %
    20:00Ясно и безоблачно+18°C75 %757 мм8.3 м/с5 %
    23:00Ясно и безоблачно+18°C74 %758 мм6.1 м/с5 %
  • 25февраля
    Воскресенье
    +15°
    +22°
    Ясно и безоблачно
    ВремяПогодаТемператураВлажностьДавлениеВетер, м/сВероятность осадков
    02:00Ясно и безоблачно+16°C86 %757 мм5.8 м/с5 %
    05:00Ясно и безоблачно+15°C92 %757 мм4.4 м/с5 %
    08:00Ясно и безоблачно+15°C89 %758 мм1.3 м/с5 %
    11:00Ясно и безоблачно+19°C70 %758 мм3.0 м/с5 %
    14:00Ясно и безоблачно+20°C61 %757 мм5.2 м/с5 %
    17:00Ясно и безоблачно+21°C67 %756 мм5.6 м/с3 %
    20:00Ясно и безоблачно+17°C83 %757 мм4.5 м/с5 %
    23:00Ясно и безоблачно+17°C83 %758 мм3.5 м/с5 %
  • 26февраля
    Понедельник
    +15°
    +20°
    Ясно и безоблачно
    ВремяПогодаТемператураВлажностьДавлениеВетер, м/сВероятность осадков
    02:00Ясно и безоблачно+16°C88 %757 мм1.7 м/с5 %
    05:00Небольшая облачность+16°C95 %756 мм1.3 м/с7 %
    08:00Облачно с прояснениями+17°C89 %757 мм3.2 м/с11 %
    11:00Практически безоблачно+18°C72 %757 мм2.1 м/с4 %
    14:00Ясно и безоблачно+19°C66 %756 мм5.5 м/с5 %
    17:00Ясно и безоблачно+20°C68 %755 мм7.6 м/с5 %
    20:00Ясно и безоблачно+17°C84 %756 мм6.4 м/с5 %
    23:00Ясно и безоблачно+16°C90 %757 мм3.2 м/с5 %
Мы используем cookies
Соглашаюсь